createdAt,value
2023-03-06T00:00:56.382Z,89.40
2023-03-06T00:03:23.870Z,89.20
2023-03-06T00:05:50.842Z,89.20
2023-03-06T00:08:17.669Z,89.20
2023-03-06T00:10:44.610Z,89.20
2023-03-06T00:13:13.507Z,89.30
2023-03-06T00:15:40.481Z,89.20
2023-03-06T00:18:07.583Z,89.10
2023-03-06T00:20:35.430Z,89.00
2023-03-06T00:23:02.857Z,89.10
2023-03-06T00:25:29.830Z,89.10
2023-03-06T00:27:56.864Z,89.10
2023-03-06T00:30:24.917Z,89.20
2023-03-06T00:32:52.781Z,89.20
2023-03-06T00:35:20.133Z,89.20
2023-03-06T00:37:47.111Z,89.20
2023-03-06T00:40:17.257Z,89.20
2023-03-06T00:42:44.474Z,89.30
2023-03-06T00:45:11.805Z,89.30
2023-03-06T00:47:38.725Z,89.20
2023-03-06T00:50:06.169Z,89.20
2023-03-06T00:52:32.993Z,89.10
2023-03-06T00:54:59.945Z,89.10
2023-03-06T00:57:26.701Z,89.00
2023-03-06T00:59:53.509Z,88.90
2023-03-06T01:02:20.434Z,88.80
2023-03-06T01:04:47.293Z,88.80
2023-03-06T01:07:14.092Z,88.80
2023-03-06T01:09:41.213Z,88.90
2023-03-06T01:12:08.397Z,88.80
2023-03-06T01:14:35.351Z,88.80
2023-03-06T01:17:02.207Z,88.90
2023-03-06T01:19:28.990Z,88.90
2023-03-06T01:21:56.096Z,89.00
2023-03-06T01:24:25.686Z,89.00
2023-03-06T01:26:52.638Z,88.90
2023-03-06T01:29:19.676Z,89.20
2023-03-06T01:31:46.474Z,89.10
2023-03-06T01:34:13.372Z,89.00
2023-03-06T01:36:40.229Z,89.20
2023-03-06T01:39:07.068Z,89.10
2023-03-06T01:41:33.923Z,89.00
2023-03-06T01:44:01.031Z,89.00
2023-03-06T01:46:33.861Z,89.00
2023-03-06T01:49:08.657Z,89.00
2023-03-06T01:51:42.963Z,89.10
2023-03-06T01:54:17.683Z,89.10
2023-03-06T01:56:48.595Z,88.80
2023-03-06T01:59:16.470Z,89.10
2023-03-06T02:01:44.613Z,89.10
2023-03-06T02:04:11.973Z,89.00
2023-03-06T02:06:43.262Z,89.20
2023-03-06T02:09:12.361Z,89.10
2023-03-06T02:11:43.756Z,89.20
2023-03-06T02:14:16.526Z,89.20
2023-03-06T02:16:43.666Z,89.30
2023-03-06T02:19:24.481Z,89.30
2023-03-06T02:21:51.307Z,89.40
2023-03-06T02:24:38.578Z,89.20
2023-03-06T02:27:06.736Z,89.30
2023-03-06T02:29:34.461Z,89.10
2023-03-06T02:32:01.414Z,89.20
2023-03-06T02:34:28.240Z,89.00
2023-03-06T02:37:04.550Z,89.00
2023-03-06T02:39:34.091Z,88.80
2023-03-06T02:42:00.878Z,88.30
2023-03-06T02:44:28.644Z,88.00
2023-03-06T02:46:55.463Z,88.50
2023-03-06T02:49:22.250Z,88.50
2023-03-06T02:51:49.023Z,88.50
2023-03-06T02:54:18.346Z,88.70
2023-03-06T02:56:45.827Z,88.90
2023-03-06T02:59:12.760Z,88.80
2023-03-06T03:01:39.612Z,89.00
2023-03-06T03:04:06.484Z,89.10
2023-03-06T03:06:33.333Z,89.30
2023-03-06T03:09:00.115Z,89.40
2023-03-06T03:11:26.868Z,89.60
2023-03-06T03:13:53.611Z,89.80
2023-03-06T03:16:20.448Z,89.90
2023-03-06T03:18:51.113Z,90.00
2023-03-06T03:21:18.843Z,90.00
2023-03-06T03:23:45.610Z,90.00
2023-03-06T03:26:15.600Z,90.00
2023-03-06T03:28:43.001Z,90.00
2023-03-06T03:31:11.121Z,90.20
2023-03-06T03:33:38.629Z,90.20
2023-03-06T03:36:07.765Z,90.30
2023-03-06T03:38:35.416Z,90.40
2023-03-06T03:41:03.380Z,90.40
2023-03-06T03:43:30.671Z,90.50
2023-03-06T03:45:57.454Z,90.50
2023-03-06T03:48:24.250Z,90.60
2023-03-06T03:50:51.186Z,90.70
2023-03-06T03:53:18.065Z,90.70
2023-03-06T03:55:47.279Z,90.80
2023-03-06T03:58:14.139Z,90.80
2023-03-06T04:00:40.947Z,90.80
2023-03-06T04:03:07.690Z,90.90
2023-03-06T04:05:35.050Z,91.00
2023-03-06T04:08:03.219Z,91.10
2023-03-06T04:10:30.331Z,91.10
2023-03-06T04:12:57.595Z,91.20
2023-03-06T04:15:24.386Z,91.10
2023-03-06T04:17:51.385Z,91.20
2023-03-06T04:20:18.613Z,91.30
2023-03-06T04:22:45.383Z,91.40
2023-03-06T04:25:12.149Z,91.50
2023-03-06T04:27:39.006Z,91.50
2023-03-06T04:30:07.516Z,91.60
2023-03-06T04:32:34.382Z,91.60
2023-03-06T04:35:01.260Z,91.60
2023-03-06T04:37:28.257Z,91.60
2023-03-06T04:39:55.078Z,91.50
2023-03-06T04:42:21.865Z,91.40
2023-03-06T04:44:48.656Z,91.20
2023-03-06T04:47:16.544Z,91.00
2023-03-06T04:49:44.905Z,90.70
2023-03-06T04:52:11.761Z,90.80
2023-03-06T04:54:38.548Z,90.80
2023-03-06T04:57:05.312Z,90.80
2023-03-06T04:59:32.106Z,90.90
2023-03-06T05:01:59.014Z,91.00
2023-03-06T05:04:26.003Z,91.10
2023-03-06T05:06:52.769Z,91.10
2023-03-06T05:09:19.576Z,91.20
2023-03-06T05:11:46.363Z,91.20
2023-03-06T05:14:13.130Z,91.30
2023-03-06T05:16:39.976Z,91.50
2023-03-06T05:19:06.823Z,91.70
2023-03-06T05:21:33.717Z,91.80
2023-03-06T05:24:00.578Z,91.90
2023-03-06T05:26:27.391Z,91.90
2023-03-06T05:28:55.306Z,92.00
2023-03-06T05:31:22.151Z,92.10
2023-03-06T05:33:48.944Z,92.10
2023-03-06T05:36:15.765Z,92.10
2023-03-06T05:38:42.557Z,91.80
2023-03-06T05:41:15.345Z,91.80
2023-03-06T05:43:42.614Z,91.80
2023-03-06T05:46:10.890Z,91.90
2023-03-06T05:48:37.780Z,91.90
2023-03-06T05:51:05.582Z,91.90
2023-03-06T05:53:32.818Z,91.80
2023-03-06T05:56:04.620Z,91.80
2023-03-06T05:58:32.594Z,91.90
2023-03-06T06:00:59.942Z,91.90
2023-03-06T06:03:27.101Z,92.00
2023-03-06T06:05:55.343Z,92.10
2023-03-06T06:08:22.179Z,92.20
2023-03-06T06:10:50.998Z,92.20
2023-03-06T06:13:19.618Z,92.20
2023-03-06T06:15:46.467Z,92.20
2023-03-06T06:18:13.324Z,92.30
2023-03-06T06:20:40.185Z,92.30
2023-03-06T06:23:07.089Z,92.20
2023-03-06T06:25:34.034Z,92.10
2023-03-06T06:28:00.877Z,92.00
2023-03-06T06:30:27.692Z,92.00
2023-03-06T06:32:54.519Z,91.80
2023-03-06T06:35:21.395Z,91.80
2023-03-06T06:37:48.867Z,91.80
2023-03-06T06:40:15.921Z,91.70
2023-03-06T06:42:42.923Z,91.70
2023-03-06T06:45:11.238Z,91.60
2023-03-06T06:47:41.343Z,91.70
2023-03-06T06:50:12.586Z,91.60
2023-03-06T06:52:39.404Z,91.70
2023-03-06T06:55:06.565Z,91.70
2023-03-06T06:57:33.550Z,91.70
2023-03-06T07:00:00.365Z,91.70
2023-03-06T07:02:27.206Z,91.90
2023-03-06T07:05:03.556Z,92.00
2023-03-06T07:07:33.898Z,92.10
2023-03-06T07:10:00.715Z,92.20
2023-03-06T07:12:27.521Z,92.30
2023-03-06T07:14:54.300Z,92.50
2023-03-06T07:17:21.121Z,92.80
2023-03-06T07:19:48.287Z,92.90
2023-03-06T07:22:15.175Z,93.10
2023-03-06T07:24:41.971Z,93.10
2023-03-06T07:27:08.776Z,93.10
2023-03-06T07:29:35.931Z,93.00
2023-03-06T07:32:03.085Z,93.00
2023-03-06T07:34:30.008Z,93.00
2023-03-06T07:36:56.815Z,93.10
2023-03-06T07:39:23.643Z,93.00
2023-03-06T07:41:52.211Z,93.10
2023-03-06T07:44:19.144Z,92.80
2023-03-06T07:46:45.932Z,92.70
2023-03-06T07:49:12.778Z,92.70
2023-03-06T07:51:39.720Z,92.60
2023-03-06T07:54:06.533Z,92.50
2023-03-06T07:56:35.101Z,92.50
2023-03-06T07:59:02.344Z,92.70
2023-03-06T08:01:29.264Z,92.70
2023-03-06T08:03:56.231Z,92.70
2023-03-06T08:06:25.577Z,92.60
2023-03-06T08:08:54.124Z,92.70
2023-03-06T08:11:23.566Z,92.70
2023-03-06T08:13:52.631Z,92.70
2023-03-06T08:16:25.319Z,92.50
2023-03-06T08:18:52.242Z,92.40
2023-03-06T08:21:21.522Z,92.40
2023-03-06T08:23:48.572Z,92.40
2023-03-06T08:26:21.169Z,92.40
2023-03-06T08:28:48.093Z,92.40
2023-03-06T08:31:26.952Z,92.40
2023-03-06T08:33:54.024Z,92.30
2023-03-06T08:36:21.492Z,92.40
2023-03-06T08:38:48.387Z,92.20
2023-03-06T08:41:15.543Z,92.20
2023-03-06T08:43:42.488Z,92.20
2023-03-06T08:46:11.087Z,92.30
2023-03-06T08:48:38.385Z,92.00
2023-03-06T08:51:05.863Z,91.80
2023-03-06T08:53:42.596Z,91.70
2023-03-06T08:56:36.623Z,91.70
2023-03-06T08:59:05.800Z,91.90
2023-03-06T09:01:35.976Z,91.50
2023-03-06T09:04:05.691Z,91.70
2023-03-06T09:06:35.819Z,91.20
2023-03-06T09:09:02.828Z,91.00
2023-03-06T09:11:29.862Z,90.80
2023-03-06T09:13:57.440Z,90.70
2023-03-06T09:16:24.545Z,90.80
2023-03-06T09:18:53.007Z,90.90
2023-03-06T09:21:24.923Z,91.10
2023-03-06T09:23:51.836Z,91.10
2023-03-06T09:26:18.881Z,91.10
2023-03-06T09:28:46.069Z,91.00
2023-03-06T09:31:16.202Z,91.10
2023-03-06T09:33:43.499Z,90.90
2023-03-06T09:36:15.068Z,90.80
2023-03-06T09:38:41.913Z,90.70
2023-03-06T09:41:15.627Z,90.70
2023-03-06T09:43:48.507Z,90.50
2023-03-06T09:46:58.806Z,90.20
2023-03-06T09:49:42.745Z,90.10
2023-03-06T09:52:39.217Z,90.00
2023-03-06T09:55:52.501Z,89.50
2023-03-06T09:58:26.670Z,89.40
2023-03-06T10:01:05.719Z,89.50
2023-03-06T10:03:57.988Z,89.50
2023-03-06T10:06:30.291Z,88.80
2023-03-06T10:09:07.231Z,88.00
2023-03-06T10:11:47.466Z,88.00
2023-03-06T10:14:35.168Z,88.40
2023-03-06T10:17:02.741Z,88.50
2023-03-06T10:19:40.124Z,88.40
2023-03-06T10:22:30.488Z,87.50
2023-03-06T10:25:18.976Z,87.70
2023-03-06T10:28:05.307Z,87.90
2023-03-06T10:30:51.756Z,87.60
2023-03-06T10:33:33.551Z,87.90
2023-03-06T10:36:00.461Z,87.60
2023-03-06T10:38:30.028Z,88.70
2023-03-06T10:41:05.845Z,88.20
2023-03-06T10:43:36.712Z,88.20
2023-03-06T10:46:05.090Z,88.60
2023-03-06T10:48:35.982Z,88.80
2023-03-06T10:51:22.013Z,88.30
2023-03-06T10:53:55.136Z,88.00
2023-03-06T10:56:41.678Z,87.50
2023-03-06T10:59:19.332Z,87.80
2023-03-06T11:01:49.138Z,87.70
2023-03-06T11:04:33.115Z,87.90
2023-03-06T11:07:15.377Z,88.00
2023-03-06T11:09:48.115Z,87.60
2023-03-06T11:12:23.079Z,87.50
2023-03-06T11:15:17.442Z,88.10
2023-03-06T11:17:55.022Z,87.50
2023-03-06T11:20:51.085Z,87.90
2023-03-06T11:23:41.089Z,87.30
2023-03-06T11:26:25.985Z,86.30
2023-03-06T11:29:17.069Z,87.20
2023-03-06T11:31:54.465Z,87.50
2023-03-06T11:34:56.417Z,87.60
2023-03-06T11:37:32.571Z,87.80
2023-03-06T11:40:33.797Z,87.70
2023-03-06T11:43:33.708Z,87.00
2023-03-06T11:46:23.362Z,87.50
2023-03-06T11:48:56.234Z,87.90
2023-03-06T11:51:31.483Z,87.50
2023-03-06T11:54:00.686Z,87.50
2023-03-06T11:56:50.587Z,87.50
2023-03-06T11:59:55.524Z,87.30
2023-03-06T12:02:31.105Z,87.20
2023-03-06T12:05:07.234Z,87.10
2023-03-06T12:07:52.768Z,86.80
2023-03-06T12:10:51.793Z,85.70
2023-03-06T12:13:42.464Z,86.30
2023-03-06T12:16:30.952Z,86.70
2023-03-06T12:19:09.961Z,87.00
2023-03-06T12:22:15.201Z,87.10
2023-03-06T12:25:00.856Z,86.80
2023-03-06T12:27:52.488Z,86.70
2023-03-06T12:30:40.640Z,87.00
2023-03-06T12:33:10.780Z,87.10
2023-03-06T12:35:56.415Z,87.20
2023-03-06T12:38:41.999Z,87.40
2023-03-06T12:41:20.750Z,87.60
2023-03-06T12:44:12.368Z,87.40
2023-03-06T12:46:44.768Z,87.40
2023-03-06T12:49:31.496Z,87.60
2023-03-06T12:52:00.689Z,86.80
2023-03-06T12:54:37.676Z,86.10
2023-03-06T12:57:08.426Z,86.30
2023-03-06T12:59:44.561Z,86.40
2023-03-06T13:02:26.528Z,86.50
2023-03-06T13:05:15.145Z,86.60
2023-03-06T13:08:04.540Z,86.80
2023-03-06T13:10:36.001Z,87.10
2023-03-06T13:13:21.685Z,87.20
2023-03-06T13:16:03.756Z,87.30
2023-03-06T13:18:33.335Z,87.60
2023-03-06T13:21:00.322Z,87.70
2023-03-06T13:23:33.138Z,87.20
2023-03-06T13:26:05.210Z,86.30
2023-03-06T13:28:41.645Z,86.30
2023-03-06T13:31:18.106Z,83.40
2023-03-06T13:34:01.646Z,84.40
2023-03-06T13:36:32.622Z,84.40
2023-03-06T13:39:01.669Z,83.90
2023-03-06T13:41:31.451Z,82.30
2023-03-06T13:44:20.472Z,82.10
2023-03-06T13:47:06.392Z,82.50
2023-03-06T13:49:35.119Z,81.70
2023-03-06T13:52:23.180Z,81.60
2023-03-06T13:55:05.684Z,81.50
2023-03-06T13:57:48.835Z,82.20
2023-03-06T14:01:12.191Z,82.20
2023-03-06T14:04:12.334Z,81.90
2023-03-06T14:06:40.667Z,82.00
2023-03-06T14:09:51.320Z,81.10
2023-03-06T14:12:23.797Z,81.40
2023-03-06T14:15:00.107Z,81.00
2023-03-06T14:17:35.274Z,81.80
2023-03-06T14:20:14.805Z,82.10
2023-03-06T14:22:41.717Z,82.00
2023-03-06T14:25:28.084Z,81.30
2023-03-06T14:27:58.175Z,81.60
2023-03-06T14:30:27.229Z,79.50
2023-03-06T14:32:55.184Z,80.70
2023-03-06T14:35:28.472Z,81.30
2023-03-06T14:38:02.442Z,81.50
2023-03-06T14:40:35.465Z,81.50
2023-03-06T14:43:12.628Z,81.30
2023-03-06T14:45:50.132Z,81.70
2023-03-06T14:48:17.104Z,81.80
2023-03-06T14:50:52.518Z,81.40
2023-03-06T14:53:24.546Z,81.60
2023-03-06T14:55:55.966Z,81.50
2023-03-06T14:58:47.702Z,82.00
2023-03-06T15:01:15.864Z,80.00
2023-03-06T15:03:50.386Z,78.80
2023-03-06T15:06:22.364Z,78.50
2023-03-06T15:09:20.559Z,78.90
2023-03-06T15:12:19.917Z,78.60
2023-03-06T15:14:57.154Z,78.70
2023-03-06T15:17:28.169Z,79.30
2023-03-06T15:19:57.177Z,80.60
2023-03-06T15:22:40.614Z,80.80
2023-03-06T15:25:16.578Z,80.50
2023-03-06T15:27:52.961Z,81.30
2023-03-06T15:30:30.824Z,80.90
2023-03-06T15:33:19.541Z,80.40
2023-03-06T15:35:55.124Z,80.70
2023-03-06T15:38:26.621Z,80.70
2023-03-06T15:40:58.957Z,80.50
2023-03-06T15:43:26.850Z,81.30
2023-03-06T15:45:59.688Z,81.60
2023-03-06T15:48:27.334Z,81.70
2023-03-06T15:50:54.401Z,81.90
2023-03-06T15:53:21.321Z,80.50
2023-03-06T15:55:49.016Z,80.60
2023-03-06T15:58:20.513Z,81.30
2023-03-06T16:00:47.453Z,81.40
2023-03-06T16:03:14.257Z,80.80
2023-03-06T16:05:41.112Z,80.10
2023-03-06T16:08:09.431Z,80.40
2023-03-06T16:10:39.379Z,80.60
2023-03-06T16:13:12.652Z,81.00
2023-03-06T16:15:41.242Z,81.10
2023-03-06T16:18:12.218Z,81.50
2023-03-06T16:20:40.212Z,81.70
2023-03-06T16:23:10.406Z,81.60
2023-03-06T16:25:42.130Z,81.70
2023-03-06T16:28:16.833Z,81.90
2023-03-06T16:30:44.858Z,82.10
2023-03-06T16:33:12.482Z,82.30
2023-03-06T16:35:39.917Z,82.60
2023-03-06T16:38:06.904Z,83.10
2023-03-06T16:40:40.925Z,83.60
2023-03-06T16:43:09.435Z,84.10
2023-03-06T16:45:40.777Z,84.60
2023-03-06T16:48:13.546Z,85.10
2023-03-06T16:50:40.915Z,85.40
2023-03-06T16:53:08.171Z,85.60
2023-03-06T16:55:35.412Z,85.90
2023-03-06T16:58:02.407Z,86.10
2023-03-06T17:00:32.045Z,86.30
2023-03-06T17:03:00.269Z,86.50
2023-03-06T17:05:27.659Z,87.00
2023-03-06T17:07:54.898Z,87.10
2023-03-06T17:10:26.170Z,87.20
2023-03-06T17:12:53.687Z,87.50
2023-03-06T17:15:20.976Z,87.70
2023-03-06T17:17:48.602Z,87.70
2023-03-06T17:20:15.709Z,87.80
2023-03-06T17:22:42.694Z,87.60
2023-03-06T17:25:09.780Z,87.70
2023-03-06T17:27:37.618Z,87.50
2023-03-06T17:30:05.583Z,87.50
2023-03-06T17:32:32.864Z,87.70
2023-03-06T17:34:59.988Z,87.90
2023-03-06T17:50:15.486Z,88.40
2023-03-06T17:52:42.380Z,88.70
2023-03-06T17:55:09.487Z,88.80
2023-03-06T17:57:36.257Z,88.90
2023-03-06T18:00:05.589Z,89.00
2023-03-06T18:02:32.514Z,89.00
2023-03-06T18:04:59.358Z,89.20
2023-03-06T18:07:26.699Z,89.40
2023-03-06T18:09:53.564Z,89.50
2023-03-06T18:12:20.437Z,89.50
2023-03-06T18:14:48.668Z,89.60
2023-03-06T18:17:15.557Z,89.70
2023-03-06T18:19:42.457Z,89.80
2023-03-06T18:22:09.254Z,89.70
2023-03-06T18:24:37.007Z,89.80
2023-03-06T18:27:03.867Z,89.80
2023-03-06T18:29:30.819Z,89.80
2023-03-06T18:31:59.296Z,89.90
2023-03-06T18:34:26.324Z,89.90
2023-03-06T18:36:53.122Z,89.90
2023-03-06T18:39:21.489Z,90.00
2023-03-06T18:41:48.388Z,89.90
2023-03-06T18:44:16.380Z,89.90
2023-03-06T18:46:43.715Z,89.90
2023-03-06T18:49:12.188Z,89.80
2023-03-06T18:51:39.291Z,89.70
2023-03-06T18:54:07.224Z,89.80
2023-03-06T18:56:34.556Z,89.90
2023-03-06T18:59:06.551Z,89.90
2023-03-06T19:01:33.955Z,89.90
2023-03-06T19:04:02.561Z,89.80
2023-03-06T19:06:29.955Z,89.70
2023-03-06T19:09:01.704Z,89.70
2023-03-06T19:11:29.026Z,89.40
2023-03-06T19:13:56.087Z,89.20
2023-03-06T19:16:25.230Z,89.10
2023-03-06T19:18:52.675Z,89.00
2023-03-06T19:21:22.505Z,88.80
2023-03-06T19:23:49.631Z,88.50
2023-03-06T19:26:18.682Z,88.50
2023-03-06T19:28:46.044Z,88.40
2023-03-06T19:31:16.099Z,88.30
2023-03-06T19:33:43.478Z,87.90
2023-03-06T19:36:12.721Z,88.00
2023-03-06T19:38:40.113Z,88.10
2023-03-06T19:41:11.863Z,88.10
2023-03-06T19:43:39.406Z,88.20
2023-03-06T19:46:06.684Z,88.30
2023-03-06T19:48:33.644Z,88.50
2023-03-06T19:51:04.455Z,88.40
2023-03-06T19:53:31.768Z,88.30
2023-03-06T19:56:13.268Z,88.30
2023-03-06T19:58:41.536Z,88.50
2023-03-06T20:01:11.271Z,88.60
2023-03-06T20:03:38.922Z,88.70
2023-03-06T20:06:09.043Z,88.80
2023-03-06T20:08:36.519Z,88.40
2023-03-06T20:11:04.111Z,88.20
2023-03-06T20:13:31.481Z,88.10
2023-03-06T20:16:03.012Z,87.80
2023-03-06T20:18:29.995Z,87.80
2023-03-06T20:20:58.807Z,87.80
2023-03-06T20:23:25.812Z,87.70
2023-03-06T20:25:53.097Z,87.70
2023-03-06T20:28:19.921Z,87.80
2023-03-06T20:30:46.853Z,87.70
2023-03-06T20:33:15.347Z,87.70
2023-03-06T20:35:42.860Z,87.70
2023-03-06T20:38:10.385Z,87.90
2023-03-06T20:40:39.039Z,87.90
2023-03-06T20:43:06.389Z,88.00
2023-03-06T20:45:33.975Z,88.20
2023-03-06T20:48:01.438Z,88.30
2023-03-06T20:50:28.448Z,88.40
2023-03-06T20:52:56.607Z,88.40
2023-03-06T20:55:23.484Z,88.40
2023-03-06T20:57:51.592Z,88.40
2023-03-06T21:00:21.126Z,88.60
2023-03-06T21:02:48.125Z,88.70
2023-03-06T21:05:15.031Z,88.80
2023-03-06T21:07:41.968Z,89.00
2023-03-06T21:10:10.608Z,89.10
2023-03-06T21:12:37.565Z,89.20
2023-03-06T21:15:04.802Z,89.30
2023-03-06T21:17:31.577Z,89.50
2023-03-06T21:19:58.506Z,89.50
2023-03-06T21:22:25.600Z,89.60
2023-03-06T21:24:52.391Z,89.60
2023-03-06T21:27:19.384Z,89.70
2023-03-06T21:33:33.862Z,89.80
2023-03-06T21:36:00.810Z,90.00
2023-03-06T21:38:27.907Z,89.90
2023-03-06T21:40:55.989Z,90.00
2023-03-06T21:43:23.114Z,89.90
2023-03-06T21:45:52.762Z,89.90
2023-03-06T21:48:19.704Z,89.90
2023-03-06T21:50:46.531Z,89.90
2023-03-06T21:53:13.329Z,89.90
2023-03-06T21:55:40.863Z,90.00
2023-03-06T21:58:08.758Z,89.90
2023-03-06T22:00:36.536Z,90.00
2023-03-06T22:03:04.810Z,89.90
2023-03-06T22:05:34.410Z,90.00
2023-03-06T22:08:01.291Z,89.90
2023-03-06T22:10:28.204Z,89.90
2023-03-06T22:12:55.041Z,89.90
2023-03-06T22:15:21.956Z,89.90
2023-03-06T22:17:48.830Z,89.80
2023-03-06T22:20:15.724Z,89.80
2023-03-06T22:22:44.006Z,89.80
2023-03-06T22:25:11.901Z,89.90
2023-03-06T22:27:38.838Z,89.90
2023-03-06T22:30:06.284Z,89.70
2023-03-06T22:32:33.357Z,89.70
2023-03-06T22:35:00.169Z,89.70
2023-03-06T22:37:27.051Z,89.80
2023-03-06T22:39:53.930Z,89.90
2023-03-06T22:42:20.908Z,89.80
2023-03-06T22:44:47.694Z,89.60
2023-03-06T22:47:14.614Z,89.70
2023-03-06T22:49:41.407Z,89.70
2023-03-06T22:52:08.222Z,89.80
2023-03-06T22:54:35.016Z,89.90
2023-03-06T22:57:01.834Z,90.00
2023-03-06T22:59:28.741Z,90.00
2023-03-06T23:01:55.582Z,90.00
2023-03-06T23:04:22.412Z,90.00
2023-03-06T23:06:49.329Z,90.00
2023-03-06T23:09:21.484Z,90.10
2023-03-06T23:11:49.829Z,90.10
2023-03-06T23:14:18.535Z,90.10
2023-03-06T23:16:45.793Z,90.10
2023-03-06T23:19:12.826Z,90.10
2023-03-06T23:21:39.675Z,90.10
2023-03-06T23:24:07.525Z,90.10
2023-03-06T23:26:34.626Z,90.10
2023-03-06T23:29:02.236Z,90.20
2023-03-06T23:31:31.059Z,90.10
2023-03-06T23:33:59.995Z,90.10
2023-03-06T23:36:27.884Z,90.20
2023-03-06T23:38:55.671Z,90.20
2023-03-06T23:41:23.663Z,90.20
2023-03-06T23:43:53.473Z,90.20
2023-03-06T23:46:21.626Z,90.20
2023-03-06T23:48:48.606Z,90.20
2023-03-06T23:51:18.971Z,90.20
2023-03-06T23:53:46.680Z,90.30
2023-03-06T23:56:13.881Z,90.40
2023-03-06T23:58:40.912Z,90.40
